Time;durP1;ratioP1;P1;durP2;ratioP2;P2;SDS_P1;SDS_P2;PMS_P1;PMS_P2;Temp;Humidity;BMP_temperature;BMP_pressure;BME280_temperature;BME280_humidity;BME280_pressure;Samples;Min_cycle;Max_cycle;Signal;HPM_P1;HPM_P2
2022/08/23 00:02:22;;;;;;;11.43;6.28;;;;;;;19.35;65.38;101307.34;5001119;28;20045;-75
2022/08/23 00:04:48;;;;;;;12.13;6.45;;;;;;;19.40;65.58;101304.22;5000411;28;20018;-75
2022/08/23 00:07:15;;;;;;;10.05;6.00;;;;;;;19.33;65.79;101298.81;4991165;28;20079;-76
2022/08/23 00:09:41;;;;;;;10.77;6.93;;;;;;;19.37;65.06;101300.09;4991253;28;20017;-75
2022/08/23 00:12:16;;;;;;;12.25;6.88;;;;;;;19.29;65.63;101302.78;4991774;28;20052;-75
2022/08/23 00:14:47;;;;;;;9.50;6.53;;;;;;;19.23;65.60;101308.72;4995800;28;20064;-75
2022/08/23 00:17:13;;;;;;;11.30;6.70;;;;;;;19.31;65.16;101300.78;5004159;28;20021;-75
2022/08/23 00:19:39;;;;;;;11.90;6.53;;;;;;;19.29;65.31;101294.88;5007802;28;20030;-75
2022/08/23 00:22:05;;;;;;;12.80;7.25;;;;;;;19.25;65.48;101290.94;4985117;28;21047;-76
2022/08/23 00:24:31;;;;;;;11.55;6.60;;;;;;;19.29;65.44;101294.88;4998356;28;20488;-75
2022/08/23 00:27:03;;;;;;;10.23;6.57;;;;;;;19.29;65.18;101292.25;4989986;28;20624;-75
2022/08/23 00:29:37;;;;;;;11.68;6.90;;;;;;;19.20;65.52;101294.06;5006765;28;20049;-75
2022/08/23 00:32:06;;;;;;;10.25;6.43;;;;;;;19.14;65.90;101291.31;5004739;28;20286;-75
2022/08/23 00:34:32;;;;;;;10.85;7.13;;;;;;;19.24;65.43;101291.94;5002839;28;20049;-75
2022/08/23 00:36:58;;;;;;;12.70;6.78;;;;;;;19.09;65.71;101287.38;5008616;28;20474;-76
2022/08/23 00:39:24;;;;;;;13.02;6.55;;;;;;;19.12;66.05;101295.94;5004898;28;20033;-75
2022/08/23 00:41:50;;;;;;;11.23;6.85;;;;;;;19.03;66.78;101293.31;5011354;28;20049;-75
2022/08/23 00:50:29;;;;;;;10.30;6.53;;;;;;;18.97;66.82;101299.25;4998311;28;20032;-76
2022/08/23 00:53:11;;;;;;;12.50;7.15;;;;;;;18.96;66.94;101294.16;4997695;28;20080;-75
2022/08/23 00:55:39;;;;;;;11.20;6.95;;;;;;;18.86;66.88;101291.72;4989887;28;20030;-75
2022/08/23 00:58:06;;;;;;;10.85;7.07;;;;;;;18.76;66.78;101284.03;4999894;28;20034;-75
2022/08/23 01:00:31;;;;;;;11.52;7.10;;;;;;;18.85;66.99;101295.34;4989193;28;20050;-75
2022/08/23 01:02:57;;;;;;;12.27;7.75;;;;;;;18.68;67.05;101288.47;4998456;28;20532;-76
2022/08/23 01:05:30;;;;;;;12.52;7.18;;;;;;;18.82;67.16;101295.69;5002708;28;20075;-75
2022/08/23 01:07:58;;;;;;;13.48;7.35;;;;;;;18.67;67.97;101292.06;5008295;28;20053;-75
2022/08/23 01:10:31;;;;;;;11.05;7.00;;;;;;;18.74;67.93;101298.31;4999165;28;20026;-75
2022/08/23 01:13:11;;;;;;;10.13;6.65;;;;;;;18.77;67.39;101298.00;5004428;28;20049;-75
2022/08/23 01:15:59;;;;;;;11.23;6.95;;;;;;;18.83;67.47;101308.66;5006773;28;20022;-75
2022/08/23 01:18:27;;;;;;;11.70;7.43;;;;;;;18.64;68.51;101303.75;5001132;28;20061;-75
2022/08/23 01:21:08;;;;;;;12.07;7.15;;;;;;;18.69;67.95;101300.63;4990096;28;20066;-75
2022/08/23 01:23:33;;;;;;;10.32;7.50;;;;;;;18.69;68.25;101298.00;4990458;28;20489;-75
2022/08/23 01:26:00;;;;;;;12.73;7.45;;;;;;;18.55;68.85;101305.53;5002600;28;20536;-75
2022/08/23 01:28:25;;;;;;;12.85;8.13;;;;;;;18.60;68.91;101301.59;4999687;28;20030;-75
2022/08/23 01:30:51;;;;;;;10.23;7.75;;;;;;;18.60;68.44;101291.09;4987347;28;20045;-75
2022/08/23 01:33:17;;;;;;;10.88;8.02;;;;;;;18.66;68.09;101291.25;4987828;28;20493;-76
2022/08/23 01:35:47;;;;;;;12.43;8.27;;;;;;;18.65;68.12;101299.28;4987811;28;20036;-75
2022/08/23 01:38:13;;;;;;;12.38;8.30;;;;;;;18.63;68.20;101296.00;4995944;28;20095;-75
2022/08/23 01:40:39;;;;;;;11.55;8.32;;;;;;;18.60;68.40;101285.84;5005530;28;20173;-75
2022/08/23 01:43:07;;;;;;;11.13;8.90;;;;;;;18.54;68.58;101288.13;5000880;28;20076;-76
2022/08/23 01:45:34;;;;;;;12.82;9.43;;;;;;;18.45;69.38;101291.75;5003539;28;20061;-75
2022/08/23 01:48:00;;;;;;;13.18;8.75;;;;;;;18.50;68.98;101292.06;5002565;28;20026;-75
2022/08/23 01:50:27;;;;;;;13.95;8.77;;;;;;;18.41;69.75;101295.72;5003492;28;20088;-75
2022/08/23 01:52:52;;;;;;;13.25;8.75;;;;;;;18.40;69.94;101291.41;5005453;28;20017;-75
2022/08/23 01:55:18;;;;;;;12.25;8.90;;;;;;;18.34;70.63;101297.31;5000783;28;20379;-76
2022/08/23 01:57:45;;;;;;;9.68;8.13;;;;;;;18.31;70.61;101302.94;4987396;28;20529;-75
2022/08/23 02:00:11;;;;;;;13.43;9.13;;;;;;;18.43;69.63;101300.78;5003817;28;20198;-75
2022/08/23 02:02:37;;;;;;;11.77;8.90;;;;;;;18.47;69.41;101297.66;5005178;28;20034;-75
2022/08/23 02:05:05;;;;;;;12.35;9.07;;;;;;;18.49;69.63;101295.69;5001834;28;20442;-75
2022/08/23 02:07:30;;;;;;;14.60;9.55;;;;;;;18.38;70.36;101293.41;5003294;28;20030;-75
2022/08/23 02:09:56;;;;;;;12.00;9.70;;;;;;;18.40;70.05;101296.66;5005970;28;20470;-75
2022/08/23 02:12:22;;;;;;;14.00;9.55;;;;;;;18.38;70.33;101288.16;5001559;28;20481;-75
2022/08/23 02:14:47;;;;;;;14.15;9.75;;;;;;;18.40;70.17;101296.66;5002585;28;20030;-75
2022/08/23 02:17:14;;;;;;;12.32;9.55;;;;;;;18.44;70.01;101294.53;5003380;28;20033;-75
2022/08/23 02:19:41;;;;;;;14.00;10.15;;;;;;;18.40;69.56;101280.91;5000491;28;20038;-75
2022/08/23 02:22:07;;;;;;;11.25;9.23;;;;;;;18.36;69.92;101279.63;5005592;28;20059;-75
2022/08/23 02:24:33;;;;;;;13.35;10.18;;;;;;;18.40;70.25;101286.16;5010902;28;20017;-75
2022/08/23 02:27:02;;;;;;;13.63;10.32;;;;;;;18.41;70.86;101285.19;5007411;28;20029;-76
2022/08/23 02:29:28;;;;;;;12.93;10.32;;;;;;;18.21;70.99;101276.81;5019237;28;20160;-75
2022/08/23 02:31:55;;;;;;;15.13;10.63;;;;;;;18.35;71.13;101288.50;5014633;28;20747;-75
2022/08/23 02:34:21;;;;;;;13.05;10.35;;;;;;;18.29;71.36;101289.97;5008166;28;20148;-75
2022/08/23 02:36:47;;;;;;;13.30;10.75;;;;;;;18.32;71.07;101291.44;5006573;28;20136;-75
2022/08/23 02:39:13;;;;;;;12.95;10.05;;;;;;;18.32;71.59;101299.31;4998099;28;20037;-75
2022/08/23 02:41:40;;;;;;;14.35;10.45;;;;;;;18.31;71.79;101293.25;5002769;28;20033;-75
2022/08/23 02:44:06;;;;;;;12.73;10.80;;;;;;;18.24;72.10;101296.69;5006695;28;20028;-75
2022/08/23 02:46:31;;;;;;;13.23;10.73;;;;;;;18.27;71.98;101291.09;4997256;28;20038;-75
2022/08/23 02:48:57;;;;;;;13.73;10.93;;;;;;;18.10;72.85;101284.19;5005321;28;20025;-75
2022/08/23 02:51:23;;;;;;;14.00;10.77;;;;;;;18.08;73.23;101291.44;4993477;28;20382;-75
2022/08/23 02:53:48;;;;;;;12.73;10.80;;;;;;;18.14;73.15;101296.03;4995222;28;20474;-75
2022/08/23 02:56:14;;;;;;;13.35;10.98;;;;;;;18.09;72.62;101304.38;5005144;28;20026;-76
2022/08/23 02:58:40;;;;;;;13.18;11.15;;;;;;;18.18;72.38;101302.56;5000107;28;20360;-75
2022/08/23 03:01:16;;;;;;;12.63;10.60;;;;;;;18.09;73.01;101301.75;4990081;28;20079;-76
2022/08/23 03:03:42;;;;;;;13.93;10.95;;;;;;;18.18;72.36;101313.06;4991783;28;20033;-75
2022/08/23 03:06:07;;;;;;;13.82;10.75;;;;;;;17.98;73.38;101300.25;5000375;28;20030;-76
2022/08/23 03:08:33;;;;;;;12.77;11.43;;;;;;;17.87;73.51;101312.88;5008510;28;20585;-75
2022/08/23 03:10:58;;;;;;;15.75;11.90;;;;;;;17.71;74.94;101322.31;4999481;28;20023;-75
2022/08/23 03:13:24;;;;;;;13.40;11.25;;;;;;;17.73;73.80;101324.81;5004456;28;20061;-76
2022/08/23 03:15:49;;;;;;;12.50;11.18;;;;;;;17.70;73.87;101314.59;5002781;28;20509;-75
2022/08/23 03:18:15;;;;;;;16.95;12.73;;;;;;;17.51;74.50;101321.75;4996772;28;20026;-75
2022/08/23 03:20:40;;;;;;;15.02;13.40;;;;;;;17.45;75.40;101329.44;5004262;28;20018;-75
2022/08/23 03:23:07;;;;;;;14.93;13.45;;;;;;;17.43;74.87;101329.59;5009602;28;20026;-75
2022/08/23 03:25:33;;;;;;;18.23;14.20;;;;;;;17.45;75.58;101343.38;4999356;28;20136;-75
2022/08/23 03:28:03;;;;;;;16.42;14.55;;;;;;;17.46;75.94;101339.75;5005211;28;20018;-75
2022/08/23 03:30:28;;;;;;;16.08;14.38;;;;;;;17.61;75.34;101344.44;4992953;28;20365;-76
2022/08/23 03:32:54;;;;;;;17.77;14.63;;;;;;;17.44;75.61;101346.97;4997387;28;20474;-75
2022/08/23 03:35:19;;;;;;;17.35;15.55;;;;;;;17.50;75.83;101341.09;4994496;28;20022;-75
2022/08/23 03:37:45;;;;;;;15.55;13.95;;;;;;;17.62;75.12;101332.94;5000640;28;20025;-75
2022/08/23 03:40:10;;;;;;;17.30;15.63;;;;;;;17.48;75.75;101337.78;5001737;28;20533;-75
2022/08/23 03:42:36;;;;;;;16.60;14.93;;;;;;;17.34;76.20;101341.03;5001180;28;20389;-75
2022/08/23 03:45:01;;;;;;;17.80;16.05;;;;;;;17.41;75.60;101336.78;5000864;28;20022;-75
2022/08/23 03:47:27;;;;;;;16.98;15.48;;;;;;;17.48;75.27;101337.78;4999326;28;20150;-75
2022/08/23 03:49:53;;;;;;;18.17;16.27;;;;;;;17.43;75.27;101339.25;5002752;28;20022;-75
2022/08/23 03:52:18;;;;;;;18.33;16.52;;;;;;;17.49;74.84;101349.94;4999846;28;20057;-75
2022/08/23 03:54:43;;;;;;;17.98;16.17;;;;;;;17.46;74.81;101346.81;5005973;28;20049;-75
2022/08/23 03:57:09;;;;;;;18.42;16.83;;;;;;;17.47;74.65;101346.66;5003465;28;20057;-75
2022/08/23 03:59:37;;;;;;;18.27;16.38;;;;;;;17.41;76.01;101349.91;4995580;28;20573;-75
2022/08/23 04:02:03;;;;;;;18.33;16.42;;;;;;;17.50;75.31;101354.22;5005641;28;20034;-75
2022/08/23 04:04:29;;;;;;;18.75;16.75;;;;;;;17.52;75.57;101357.50;5002375;28;20024;-75
2022/08/23 04:06:55;;;;;;;18.92;17.05;;;;;;;17.56;75.19;101349.31;4999792;28;20041;-75
2022/08/23 04:09:21;;;;;;;18.42;16.63;;;;;;;17.50;75.88;101356.03;5003332;28;20022;-75
2022/08/23 04:11:46;;;;;;;18.70;16.75;;;;;;;17.53;75.29;101351.25;5007156;28;20890;-75
2022/08/23 04:14:12;;;;;;;18.75;16.88;;;;;;;17.59;75.09;101364.72;5007421;28;20128;-76
2022/08/23 04:16:39;;;;;;;18.45;16.60;;;;;;;17.53;75.42;101351.25;5006517;28;20030;-76
2022/08/23 04:19:11;;;;;;;18.30;16.50;;;;;;;17.58;75.29;101363.09;5007880;28;20029;-76
2022/08/23 04:21:40;;;;;;;17.75;15.95;;;;;;;17.61;75.57;101362.78;5007797;28;20066;-75
2022/08/23 04:24:05;;;;;;;;;;;;;;;17.81;73.92;101364.19;4998718;28;20030;-76
2022/08/23 04:26:32;;;;;;;18.63;16.90;;;;;;;17.49;75.83;101357.81;5006966;28;19936;-75
2022/08/23 04:28:58;;;;;;;17.48;15.88;;;;;;;17.58;75.76;101352.59;4992003;28;20030;-75
2022/08/23 04:31:25;;;;;;;17.83;16.08;;;;;;;17.60;75.12;101355.88;4998785;28;20033;-76
2022/08/23 04:33:51;;;;;;;18.98;17.00;;;;;;;17.59;75.43;101349.00;5008172;28;20038;-75
2022/08/23 04:36:16;;;;;;;18.45;16.55;;;;;;;17.65;75.78;101358.84;5001848;28;20064;-75
2022/08/23 04:38:42;;;;;;;17.95;16.25;;;;;;;17.65;75.86;101358.84;4998047;28;20076;-75
2022/08/23 04:43:51;;;;;;;17.23;15.45;;;;;;;17.70;75.02;101370.50;5001959;28;20040;-75
2022/08/23 04:46:16;;;;;;;18.20;16.35;;;;;;;17.59;76.61;101370.78;5005357;28;20017;-75
2022/08/23 04:48:43;;;;;;;18.67;16.75;;;;;;;17.64;76.56;101372.94;4994004;28;20037;-75
2022/08/23 04:51:09;;;;;;;18.05;16.35;;;;;;;17.69;75.80;101375.94;5007222;28;20102;-75
2022/08/23 04:53:35;;;;;;;17.80;15.93;;;;;;;17.69;75.73;101375.94;4998218;28;20037;-76
2022/08/23 04:56:02;;;;;;;18.35;16.52;;;;;;;17.69;75.25;101374.13;5005400;28;20044;-76
2022/08/23 04:58:29;;;;;;;18.73;16.92;;;;;;;17.63;75.10;101384.44;5002866;28;20131;-75
2022/08/23 05:00:57;;;;;;;19.27;17.38;;;;;;;17.62;74.96;101374.91;5000843;28;20044;-75
2022/08/23 05:03:23;;;;;;;19.52;17.48;;;;;;;17.63;74.68;101371.31;4990691;28;20036;-75
2022/08/23 05:05:48;;;;;;;18.80;17.00;;;;;;;17.67;75.02;101377.91;5003436;28;20025;-75
2022/08/23 05:08:14;;;;;;;19.30;17.50;;;;;;;17.55;76.36;101379.13;4999034;28;20030;-75
2022/08/23 05:10:40;;;;;;;19.67;17.70;;;;;;;17.66;75.90;101378.84;5012185;28;20022;-75
2022/08/23 05:13:05;;;;;;;19.80;17.80;;;;;;;17.64;76.17;101368.53;4991653;28;20061;-75
2022/08/23 05:15:31;;;;;;;20.88;18.75;;;;;;;17.62;76.37;101380.16;5015547;28;20377;-75
2022/08/23 05:17:56;;;;;;;20.85;18.65;;;;;;;17.69;75.64;101373.31;4993471;28;20026;-75
2022/08/23 05:20:21;;;;;;;20.35;18.30;;;;;;;17.69;76.72;101368.88;4991348;28;20046;-75
2022/08/23 05:22:47;;;;;;;20.40;18.50;;;;;;;17.74;76.47;101368.44;5006061;28;20375;-74
2022/08/23 05:25:12;;;;;;;20.75;18.65;;;;;;;17.74;77.79;101368.44;5000441;28;20053;-75
2022/08/23 05:27:38;;;;;;;20.60;18.50;;;;;;;17.80;76.77;101367.81;5003156;28;20371;-76
2022/08/23 05:30:05;;;;;;;20.55;18.50;;;;;;;17.83;77.15;101377.97;4995003;28;20025;-76
2022/08/23 05:32:31;;;;;;;21.27;19.27;;;;;;;17.82;78.02;101386.00;5004359;28;20506;-76
2022/08/23 05:34:56;;;;;;;21.67;19.67;;;;;;;17.82;77.91;101381.56;5007119;28;20112;-77
2022/08/23 05:37:21;;;;;;;22.48;20.42;;;;;;;17.83;78.45;101388.47;4993695;28;20463;-76
2022/08/23 05:39:47;;;;;;;21.45;19.50;;;;;;;17.87;77.74;101395.03;4994683;28;20040;-76
2022/08/23 05:42:14;;;;;;;21.85;19.80;;;;;;;17.94;77.55;101393.41;4997680;28;20065;-76
2022/08/23 05:44:41;;;;;;;21.50;19.40;;;;;;;18.01;77.08;101391.81;5000906;28;20030;-75
2022/08/23 05:47:08;;;;;;;20.33;18.35;;;;;;;18.05;76.66;101401.00;4999881;28;20030;-76
2022/08/23 05:49:35;;;;;;;22.27;20.15;;;;;;;18.12;76.73;101402.97;5005102;28;20144;-76
2022/08/23 05:52:05;;;;;;;20.77;18.98;;;;;;;18.17;76.66;101405.94;4995762;28;20034;-76
2022/08/23 05:54:31;;;;;;;22.00;19.85;;;;;;;18.23;76.60;101405.31;4987726;28;20409;-76
2022/08/23 05:56:57;;;;;;;22.08;19.88;;;;;;;18.27;76.13;101401.38;4987701;28;20064;-76
2022/08/23 05:59:22;;;;;;;22.60;20.50;;;;;;;18.34;76.32;101406.81;4991426;28;20395;-76
2022/08/23 06:01:47;;;;;;;21.88;19.98;;;;;;;18.38;75.96;101402.88;4986724;28;20069;-76
2022/08/23 06:04:14;;;;;;;22.08;19.98;;;;;;;18.41;75.82;101413.06;4996672;28;20096;-76
2022/08/23 06:06:41;;;;;;;23.40;21.13;;;;;;;18.39;76.15;101410.59;4991499;28;20501;-76
2022/08/23 06:09:09;;;;;;;21.92;20.00;;;;;;;18.47;75.84;101423.75;5003069;28;20030;-76
2022/08/23 06:11:35;;;;;;;22.98;20.98;;;;;;;18.41;77.27;101418.31;5006527;28;20033;-76
2022/08/23 06:14:03;;;;;;;21.70;19.80;;;;;;;18.47;76.79;101409.81;5007308;28;20032;-76
2022/08/23 06:16:33;;;;;;;22.98;20.88;;;;;;;18.50;76.02;101423.41;4994649;28;20019;-76
2022/08/23 06:19:03;;;;;;;24.40;21.98;;;;;;;18.45;75.93;101407.31;5013297;28;20041;-76
2022/08/23 06:21:30;;;;;;;23.58;21.30;;;;;;;18.53;75.92;101423.09;5005993;28;20136;-76
2022/08/23 06:23:56;;;;;;;25.00;22.58;;;;;;;18.55;76.53;101426.38;5002792;28;20041;-75
2022/08/23 06:26:31;;;;;;;23.92;21.60;;;;;;;18.65;76.29;101426.22;4998389;28;20378;-76
2022/08/23 06:28:59;;;;;;;23.83;21.35;;;;;;;18.61;76.19;101430.16;5003653;28;20140;-76
2022/08/23 06:34:12;;;;;;;24.20;21.77;;;;;;;18.77;76.17;101434.66;5001046;28;19987;-75
2022/08/23 06:36:37;;;;;;;23.30;21.10;;;;;;;18.81;76.80;101428.91;4999712;28;20037;-76
2022/08/23 06:39:04;;;;;;;23.60;21.40;;;;;;;18.85;75.38;101424.13;4990654;28;20026;-76
2022/08/23 06:41:30;;;;;;;23.20;21.02;;;;;;;18.90;75.02;101424.44;4999181;28;20026;-76
2022/08/23 06:43:55;;;;;;;24.60;22.15;;;;;;;18.96;74.85;101434.31;5010532;28;20026;-76
2022/08/23 06:46:23;;;;;;;23.25;21.05;;;;;;;18.93;74.34;101434.66;5005337;28;20022;-77
2022/08/23 06:48:50;;;;;;;24.13;21.55;;;;;;;18.95;74.73;101432.66;4995367;28;20032;-76
2022/08/23 06:51:37;;;;;;;22.38;20.27;;;;;;;19.01;74.34;101434.63;4996876;28;20050;-76
2022/08/23 06:54:06;;;;;;;23.65;21.50;;;;;;;19.08;74.43;101437.41;4999665;28;20056;-76
2022/08/23 06:56:31;;;;;;;23.38;21.13;;;;;;;19.13;74.25;101423.78;5011572;28;20032;-76
2022/08/23 06:58:58;;;;;;;22.83;20.90;;;;;;;19.17;73.56;101425.09;4990985;28;20034;-75
2022/08/23 07:01:32;;;;;;;23.13;20.83;;;;;;;19.24;73.08;101421.63;4997825;28;20049;-75
2022/08/23 07:03:58;;;;;;;22.73;20.63;;;;;;;19.27;71.80;101423.13;4978320;28;20039;-76
2022/08/23 07:06:26;;;;;;;22.50;20.55;;;;;;;19.28;71.68;101425.56;4976111;28;20085;-76
2022/08/23 07:08:52;;;;;;;22.27;20.08;;;;;;;19.29;71.94;101431.66;4980523;28;20022;-76
2022/08/23 07:11:18;;;;;;;22.25;20.15;;;;;;;19.33;71.76;101432.97;4973343;28;20026;-76
2022/08/23 07:13:44;;;;;;;23.13;21.02;;;;;;;19.37;71.66;101418.47;4982850;28;20028;-77
2022/08/23 07:16:10;;;;;;;22.63;20.50;;;;;;;19.47;71.28;101426.19;4982112;28;20031;-76
2022/08/23 07:18:36;;;;;;;21.85;19.88;;;;;;;19.53;70.91;101436.03;4991937;28;20069;-76
2022/08/23 07:21:04;;;;;;;21.92;19.98;;;;;;;19.63;70.93;101434.88;4992286;28;20033;-76
2022/08/23 07:23:32;;;;;;;21.75;19.52;;;;;;;19.71;69.96;101435.84;4972697;28;20069;-76
2022/08/23 07:26:05;;;;;;;21.50;19.33;;;;;;;19.82;69.05;101440.72;4975703;28;20109;-76
2022/08/23 07:28:30;;;;;;;21.92;19.63;;;;;;;19.89;69.22;101431.97;4976948;28;20027;-76
2022/08/23 07:31:28;;;;;;;21.25;19.10;;;;;;;20.07;67.76;101433.53;4973885;28;20029;-76
2022/08/23 07:33:57;;;;;;;22.60;19.85;;;;;;;20.17;67.07;101440.22;4974633;28;20037;-76
2022/08/23 07:36:25;;;;;;;22.98;20.80;;;;;;;20.33;67.04;101435.88;4975549;28;20085;-76
2022/08/23 07:38:51;;;;;;;23.35;21.15;;;;;;;20.48;67.14;101446.53;4986248;28;20614;-77
2022/08/23 07:41:17;;;;;;;24.33;21.92;;;;;;;20.48;66.59;101426.25;4975749;28;20154;-77
2022/08/23 07:43:44;;;;;;;24.00;21.73;;;;;;;20.61;66.24;101436.22;4975200;28;20031;-77
2022/08/23 07:46:10;;;;;;;23.67;21.38;;;;;;;20.65;66.27;101443.59;4973537;28;20033;-76
2022/08/23 07:48:36;;;;;;;20.70;18.70;;;;;;;20.79;65.27;101438.53;4977812;28;20061;-77
2022/08/23 07:51:05;;;;;;;19.13;16.92;;;;;;;20.98;63.99;101459.13;4986429;28;20525;-76
2022/08/23 07:53:31;;;;;;;17.75;15.90;;;;;;;21.05;63.59;101457.44;4983958;28;20039;-76
2022/08/23 07:55:57;;;;;;;17.42;15.75;;;;;;;21.17;64.06;101457.84;4973952;28;20042;-76
2022/08/23 07:58:24;;;;;;;18.92;17.02;;;;;;;21.21;62.85;101454.63;4985772;28;20457;-76
2022/08/23 08:00:51;;;;;;;19.30;16.15;;;;;;;21.32;62.81;101465.78;4991359;28;20054;-76
2022/08/23 08:03:17;;;;;;;17.75;15.85;;;;;;;21.45;63.01;101466.00;5010959;28;20504;-77
2022/08/23 08:05:43;;;;;;;18.90;16.17;;;;;;;21.56;61.77;101457.59;5001904;28;20030;-76
2022/08/23 08:08:08;;;;;;;19.70;16.50;;;;;;;21.54;62.27;101454.34;5001887;28;20440;-77
2022/08/23 08:10:42;;;;;;;18.02;16.13;;;;;;;21.74;61.67;101463.34;5006567;28;20030;-76
2022/08/23 08:13:08;;;;;;;18.75;16.80;;;;;;;21.88;61.21;101471.44;5005823;28;20037;-77
2022/08/23 08:15:38;;;;;;;16.70;13.40;;;;;;;22.01;58.62;101476.88;4997740;28;20030;-76
2022/08/23 08:18:04;;;;;;;17.27;12.95;;;;;;;22.15;57.76;101460.25;5000918;28;20125;-76
2022/08/23 08:20:31;;;;;;;16.02;12.75;;;;;;;22.19;59.11;101464.16;5008443;28;20059;-76
2022/08/23 08:22:57;;;;;;;16.13;14.27;;;;;;;22.18;57.13;101466.97;5005240;28;20105;-77
2022/08/23 08:25:23;;;;;;;18.33;12.60;;;;;;;22.31;57.54;101466.28;5008196;28;20104;-77
2022/08/23 08:27:48;;;;;;;15.48;12.35;;;;;;;22.41;58.28;101466.81;5007349;28;20014;-76
2022/08/23 08:30:14;;;;;;;18.00;11.90;;;;;;;22.51;57.71;101472.63;5000238;28;20029;-76
2022/08/23 08:32:40;;;;;;;16.58;12.13;;;;;;;22.55;57.11;101473.88;4999409;28;20037;-76
2022/08/23 08:35:06;;;;;;;15.32;12.02;;;;;;;22.67;57.20;101469.72;5006490;28;20031;-76
2022/08/23 08:37:32;;;;;;;14.88;11.65;;;;;;;23.01;56.20;101478.81;5004016;28;20340;-76
2022/08/23 08:39:58;;;;;;;16.65;12.10;;;;;;;22.99;56.34;101480.81;5005806;28;20422;-76
2022/08/23 08:42:36;;;;;;;14.82;12.57;;;;;;;23.00;56.01;101482.47;5011796;28;20362;-76
2022/08/23 08:45:23;;;;;;;16.83;11.80;;;;;;;23.32;56.15;101481.88;5006775;28;20029;-76
2022/08/23 08:47:55;;;;;;;13.38;11.98;;;;;;;23.31;54.89;101488.19;4994988;28;20133;-76
2022/08/23 08:50:25;;;;;;;18.17;13.48;;;;;;;23.30;54.66;101488.41;4995981;28;20049;-76
2022/08/23 08:52:58;;;;;;;16.40;12.02;;;;;;;23.42;56.54;101486.03;5006825;28;20444;-76
2022/08/23 08:55:30;;;;;;;13.05;11.20;;;;;;;23.49;55.01;101489.53;4989651;28;20026;-76
2022/08/23 08:57:56;;;;;;;16.38;11.98;;;;;;;23.51;54.86;101485.69;5003882;28;20115;-76
2022/08/23 09:00:29;;;;;;;15.13;11.73;;;;;;;23.67;54.77;101489.88;4991359;28;20050;-76
2022/08/23 09:02:58;;;;;;;16.13;13.30;;;;;;;23.72;55.12;101487.47;4995341;28;20451;-77
2022/08/23 09:05:30;;;;;;;17.85;13.75;;;;;;;23.78;54.96;101497.28;4999973;28;20030;-76
2022/08/23 09:08:07;;;;;;;14.90;12.88;;;;;;;23.92;55.56;101492.88;4996696;28;20029;-77
2022/08/23 09:10:45;;;;;;;14.52;11.48;;;;;;;23.96;54.58;101504.69;4990377;28;20061;-76
2022/08/23 09:13:33;;;;;;;13.25;11.43;;;;;;;24.05;53.52;101497.41;5005634;28;20057;-76
2022/08/23 09:16:30;;;;;;;15.73;10.75;;;;;;;24.25;54.98;101495.63;4997328;28;20117;-77
2022/08/23 09:18:58;;;;;;;13.30;10.57;;;;;;;24.30;52.54;101495.84;4994290;28;20478;-75
2022/08/23 09:21:23;;;;;;;14.63;10.33;;;;;;;24.50;52.17;101489.84;5006035;28;20037;-75
2022/08/23 09:23:50;;;;;;;13.73;8.68;;;;;;;24.75;52.37;101488.22;4999373;28;20489;-76
2022/08/23 09:26:22;;;;;;;11.60;9.68;;;;;;;24.67;51.62;101485.78;4991489;28;20029;-75
2022/08/23 09:28:50;;;;;;;13.35;8.82;;;;;;;24.85;51.39;101493.97;4992160;28;20022;-76
2022/08/23 09:31:46;;;;;;;18.30;12.65;;;;;;;24.98;52.43;101492.31;4988235;28;20156;-76
2022/08/23 09:34:20;;;;;;;12.75;9.80;;;;;;;24.98;50.14;101497.63;4991960;28;20081;-75
2022/08/23 09:36:46;;;;;;;13.40;8.85;;;;;;;25.07;52.22;101501.75;4991708;28;20018;-75
2022/08/23 09:39:27;;;;;;;12.77;9.30;;;;;;;25.22;52.59;101494.38;4989983;28;20081;-75
2022/08/23 09:41:53;;;;;;;11.20;9.77;;;;;;;25.17;50.69;101486.22;4984997;28;20053;-75
2022/08/23 09:44:51;;;;;;;15.55;9.63;;;;;;;25.29;52.59;101489.91;4997791;28;20101;-78
2022/08/23 09:47:17;;;;;;;14.95;9.70;;;;;;;25.34;50.09;101492.72;4979317;28;20041;-75
2022/08/23 09:49:47;;;;;;;12.38;8.75;;;;;;;25.54;50.58;101486.59;4992953;28;20038;-76
2022/08/23 09:52:24;;;;;;;14.43;8.90;;;;;;;25.66;51.56;101492.88;4993185;28;20022;-76
2022/08/23 09:54:59;;;;;;;12.20;8.98;;;;;;;25.80;50.54;101491.84;4994055;28;20033;-76
2022/08/23 09:57:28;;;;;;;12.02;8.70;;;;;;;25.89;49.22;101495.91;4992202;28;20559;-76
2022/08/23 09:59:58;;;;;;;13.80;8.73;;;;;;;25.91;48.89;101499.16;5005178;28;20029;-76
2022/08/23 10:02:31;;;;;;;13.27;8.75;;;;;;;25.92;48.96;101478.72;4983216;28;20049;-76
2022/08/23 10:04:58;;;;;;;13.02;8.93;;;;;;;25.89;49.12;101493.25;4995042;28;20563;-76
2022/08/23 10:07:37;;;;;;;10.27;5.60;;;;;;;25.97;47.89;101486.06;4992094;28;20026;-76
2022/08/23 10:10:34;;;;;;;11.50;8.13;;;;;;;26.04;48.85;101481.56;4997915;28;20029;-76
2022/08/23 10:13:01;;;;;;;15.32;8.90;;;;;;;25.97;47.02;101472.78;5001483;28;20060;-77
2022/08/23 10:16:05;;;;;;;12.98;9.65;;;;;;;26.00;48.40;101477.69;5000000;28;20030;-76
2022/08/23 10:18:45;;;;;;;11.68;8.10;;;;;;;26.15;49.36;101483.53;4998888;28;20029;-76
2022/08/23 10:21:26;;;;;;;11.73;7.90;;;;;;;26.22;48.55;101473.69;4997712;28;20033;-76
2022/08/23 10:24:17;;;;;;;11.05;7.30;;;;;;;26.38;48.57;101486.50;5001624;28;20036;-76
2022/08/23 10:30:09;;;;;;;10.55;6.07;;;;;;;26.58;47.53;101485.56;5005638;28;20099;-76
2022/08/23 10:32:50;;;;;;;11.03;6.13;;;;;;;26.68;47.39;101483.25;4997892;28;20037;-75
2022/08/23 10:35:28;;;;;;;11.80;6.60;;;;;;;26.66;45.17;101487.97;4997337;28;20831;-76
2022/08/23 10:38:30;;;;;;;9.63;6.38;;;;;;;26.94;47.03;101483.03;5005589;28;20032;-75
2022/08/23 10:41:24;;;;;;;10.82;5.63;;;;;;;27.14;47.00;101488.22;4985853;28;20144;-75
2022/08/23 10:44:04;;;;;;;10.18;4.95;;;;;;;26.96;44.44;101485.50;4980520;28;20028;-76
2022/08/23 10:46:36;;;;;;;11.77;4.32;;;;;;;26.89;44.17;101477.53;4994901;28;20018;-76
2022/08/23 10:49:03;;;;;;;10.57;5.20;;;;;;;26.92;44.55;101474.47;4981110;28;20036;-75
2022/08/23 10:51:35;;;;;;;9.55;5.03;;;;;;;27.15;45.09;101470.41;4996774;28;20121;-75
2022/08/23 10:54:08;;;;;;;12.15;4.93;;;;;;;27.29;45.84;101474.56;4992847;28;20033;-76
2022/08/23 10:56:35;;;;;;;12.02;7.35;;;;;;;27.31;45.17;101472.50;4995607;28;20057;-75
2022/08/23 10:59:09;;;;;;;9.55;5.47;;;;;;;27.46;44.33;101470.28;4991223;28;20030;-75
2022/08/23 11:01:57;;;;;;;9.73;5.28;;;;;;;27.56;44.91;101463.63;4989496;28;20050;-75
2022/08/23 11:04:42;;;;;;;8.40;5.07;;;;;;;27.57;43.17;101465.25;4998152;28;20066;-76
2022/08/23 11:07:26;;;;;;;9.30;5.20;;;;;;;27.73;44.76;101465.50;5002381;28;20037;-75
2022/08/23 11:10:08;;;;;;;10.10;5.57;;;;;;;27.78;44.09;101467.50;4994277;28;20076;-76
2022/08/23 11:12:56;;;;;;;12.32;6.30;;;;;;;27.89;45.32;101453.41;4994674;28;20040;-76
2022/08/23 11:15:42;;;;;;;10.98;6.20;;;;;;;27.75;42.71;101457.28;4981128;28;20026;-75
2022/08/23 11:18:37;;;;;;;9.10;4.50;;;;;;;27.96;44.40;101459.47;4995369;28;20858;-76
2022/08/23 11:21:30;;;;;;;13.52;4.80;;;;;;;27.93;44.09;101459.94;4994722;28;20296;-75
2022/08/23 11:23:58;;;;;;;8.45;3.40;;;;;;;28.15;43.63;101462.09;4988353;28;20034;-75
2022/08/23 11:26:35;;;;;;;9.73;3.88;;;;;;;28.10;42.34;101467.28;4994712;28;20411;-75
2022/08/23 11:29:08;;;;;;;7.50;3.10;;;;;;;28.23;42.73;101472.47;5004902;28;20026;-75
2022/08/23 11:32:25;;;;;;;9.63;3.35;;;;;;;28.40;42.72;101470.81;4991015;28;20403;-76
2022/08/23 11:34:58;;;;;;;7.50;2.92;;;;;;;28.53;41.17;101465.25;4909689;29;20035;-75
2022/08/23 11:37:48;;;;;;;7.05;3.00;;;;;;;28.16;40.65;101469.03;4910000;29;20071;-75
2022/08/23 11:40:16;;;;;;;6.60;2.78;;;;;;;28.33;39.43;101475.44;4925606;29;20135;-75